createdAt,value
2022-07-25T00:00:41.610Z,75.00
2022-07-25T00:04:23.698Z,74.90
2022-07-25T00:08:06.570Z,74.90
2022-07-25T00:12:11.282Z,74.90
2022-07-25T00:15:56.504Z,75.20
2022-07-25T00:19:39.679Z,75.00
2022-07-25T00:27:17.738Z,75.10
2022-07-25T00:30:59.965Z,75.20
2022-07-25T00:34:44.484Z,75.20
2022-07-25T00:38:26.744Z,75.20
2022-07-25T00:42:09.155Z,75.20
2022-07-25T00:49:54.864Z,75.30
2022-07-25T00:53:45.558Z,75.40
2022-07-25T00:57:29.926Z,75.50
2022-07-25T01:01:12.063Z,75.60
2022-07-25T01:04:58.866Z,75.70
2022-07-25T01:08:42.441Z,75.70
2022-07-25T01:12:25.549Z,75.80
2022-07-25T01:16:11.995Z,76.00
2022-07-25T01:19:54.116Z,76.20
2022-07-25T01:23:36.388Z,76.10
2022-07-25T01:27:18.607Z,76.00
2022-07-25T01:31:01.020Z,76.00
2022-07-25T01:34:42.974Z,76.00
2022-07-25T01:38:25.197Z,76.00
2022-07-25T01:42:07.444Z,75.90
2022-07-25T01:45:49.645Z,75.80
2022-07-25T01:49:31.812Z,75.80
2022-07-25T01:53:13.898Z,75.80
2022-07-25T01:56:56.175Z,75.70
2022-07-25T02:00:38.587Z,75.60
2022-07-25T02:04:20.667Z,75.60
2022-07-25T02:08:02.784Z,75.50
2022-07-25T02:11:44.893Z,75.50
2022-07-25T02:15:26.905Z,75.50
2022-07-25T02:19:09.217Z,75.50
2022-07-25T02:22:51.292Z,75.50
2022-07-25T02:26:39.157Z,75.30
2022-07-25T02:30:24.604Z,74.80
2022-07-25T02:34:11.189Z,74.70
2022-07-25T02:37:53.452Z,74.50
2022-07-25T02:41:38.388Z,73.70
2022-07-25T02:45:27.025Z,73.40
2022-07-25T02:49:09.193Z,72.70
2022-07-25T02:52:51.520Z,73.00
2022-07-25T02:56:38.076Z,72.80
2022-07-25T03:00:20.442Z,72.70
2022-07-25T03:04:04.555Z,72.40
2022-07-25T03:07:48.446Z,72.50
2022-07-25T03:11:30.617Z,72.40
2022-07-25T03:15:13.611Z,72.20
2022-07-25T03:18:58.014Z,72.10
2022-07-25T03:22:47.952Z,71.80
2022-07-25T03:26:31.211Z,71.60
2022-07-25T03:30:13.469Z,71.50
2022-07-25T03:34:00.503Z,71.60
2022-07-25T03:37:50.623Z,71.60
2022-07-25T03:41:33.470Z,71.40
2022-07-25T03:45:15.584Z,71.50
2022-07-25T03:48:57.739Z,71.50
2022-07-25T03:52:40.000Z,71.30
2022-07-25T03:56:22.135Z,71.20
2022-07-25T04:00:06.686Z,71.10
2022-07-25T04:03:48.757Z,71.10
2022-07-25T04:07:30.778Z,71.00
2022-07-25T04:11:12.937Z,71.00
2022-07-25T04:14:55.092Z,71.00
2022-07-25T04:18:37.389Z,71.00
2022-07-25T04:26:19.621Z,70.90
2022-07-25T04:30:02.166Z,71.00
2022-07-25T04:33:47.550Z,71.10
2022-07-25T04:37:29.596Z,71.00
2022-07-25T04:41:11.842Z,71.00
2022-07-25T04:44:54.457Z,70.90
2022-07-25T04:48:36.540Z,71.00
2022-07-25T04:52:18.695Z,70.90
2022-07-25T04:56:00.959Z,70.80
2022-07-25T04:59:45.119Z,70.90
2022-07-25T05:03:29.876Z,70.80
2022-07-25T05:07:15.111Z,70.80
2022-07-25T05:10:57.068Z,70.80
2022-07-25T05:14:39.165Z,70.80
2022-07-25T05:18:22.096Z,70.90
2022-07-25T05:22:04.919Z,71.00
2022-07-25T05:25:47.011Z,71.10
2022-07-25T05:29:29.263Z,71.20
2022-07-25T05:33:11.250Z,71.10
2022-07-25T05:36:53.326Z,71.00
2022-07-25T05:40:35.443Z,71.00
2022-07-25T05:44:17.454Z,71.00
2022-07-25T05:48:03.911Z,70.80
2022-07-25T05:51:46.070Z,70.70
2022-07-25T05:55:28.311Z,70.80
2022-07-25T05:59:10.523Z,70.60
2022-07-25T06:02:53.817Z,70.30
2022-07-25T06:06:35.922Z,70.10
2022-07-25T06:10:18.074Z,69.80
2022-07-25T06:14:24.939Z,69.30
2022-07-25T06:18:07.318Z,69.50
2022-07-25T06:25:29.870Z,69.00
2022-07-25T06:29:12.441Z,68.70
2022-07-25T06:32:54.566Z,68.50
2022-07-25T06:36:39.537Z,68.10
2022-07-25T06:40:21.960Z,67.40
2022-07-25T06:44:04.643Z,67.00
2022-07-25T06:47:47.746Z,66.40
2022-07-25T06:51:30.036Z,66.60
2022-07-25T06:55:15.592Z,66.80
2022-07-25T06:58:59.731Z,66.80
2022-07-25T07:03:01.641Z,66.80
2022-07-25T07:06:45.097Z,66.50
2022-07-25T07:10:28.418Z,67.40
2022-07-25T07:14:18.162Z,67.00
2022-07-25T07:18:00.740Z,66.40
2022-07-25T07:22:15.096Z,65.10
2022-07-25T07:25:59.337Z,63.80
2022-07-25T07:29:42.209Z,63.00
2022-07-25T07:33:27.601Z,62.50
2022-07-25T07:37:11.643Z,61.40
2022-07-25T07:40:54.831Z,60.60
2022-07-25T07:44:38.286Z,59.90
2022-07-25T07:48:22.123Z,59.30
2022-07-25T07:52:05.566Z,58.80
2022-07-25T07:55:55.386Z,59.40
2022-07-25T07:59:39.666Z,60.10
2022-07-25T08:03:25.033Z,60.30
2022-07-25T08:07:09.353Z,60.50
2022-07-25T08:10:58.405Z,60.80
2022-07-25T08:14:41.551Z,60.80
2022-07-25T08:18:25.326Z,60.70
2022-07-25T08:22:07.854Z,60.60
2022-07-25T08:25:52.400Z,60.50
2022-07-25T08:29:47.866Z,60.50
2022-07-25T08:33:30.549Z,59.80
2022-07-25T08:37:13.784Z,60.10
2022-07-25T08:40:58.232Z,60.40
2022-07-25T08:44:52.361Z,61.00
2022-07-25T08:52:50.586Z,61.30
2022-07-25T08:56:34.188Z,61.20
2022-07-25T09:04:24.048Z,60.90
2022-07-25T09:08:18.171Z,60.90
2022-07-25T09:12:07.992Z,60.30
2022-07-25T09:15:57.958Z,59.80
2022-07-25T09:19:52.662Z,59.60
2022-07-25T09:23:38.120Z,58.90
2022-07-25T09:27:20.408Z,59.20
2022-07-25T09:31:02.723Z,58.80
2022-07-25T09:34:48.627Z,58.90
2022-07-25T09:38:32.818Z,58.50
2022-07-25T09:42:43.063Z,58.40
2022-07-25T09:46:31.214Z,57.60
2022-07-25T09:50:14.555Z,57.80
2022-07-25T09:53:56.611Z,58.20
2022-07-25T09:57:39.170Z,58.30
2022-07-25T10:01:29.263Z,58.80
2022-07-25T10:05:31.747Z,58.70
2022-07-25T10:09:16.111Z,58.00
2022-07-25T10:13:09.984Z,58.40
2022-07-25T10:16:52.856Z,58.30
2022-07-25T10:20:36.390Z,58.70
2022-07-25T10:24:19.330Z,58.50
2022-07-25T10:28:09.981Z,58.40
2022-07-25T10:32:06.630Z,58.40
2022-07-25T10:35:50.518Z,58.60
2022-07-25T10:39:39.558Z,56.90
2022-07-25T10:43:24.272Z,53.10
2022-07-25T10:47:09.250Z,50.60
2022-07-25T10:51:01.378Z,50.50
2022-07-25T10:55:02.066Z,52.60
2022-07-25T10:58:49.577Z,48.30
2022-07-25T11:02:32.106Z,48.80
2022-07-25T11:06:41.625Z,49.30
2022-07-25T11:10:29.615Z,47.50
2022-07-25T11:14:26.677Z,47.40
2022-07-25T11:18:16.276Z,44.70
2022-07-25T11:22:08.496Z,43.30
2022-07-25T11:25:52.242Z,43.20
2022-07-25T11:29:34.751Z,43.70
2022-07-25T11:33:17.660Z,43.40
2022-07-25T11:37:02.115Z,43.40
2022-07-25T11:40:45.166Z,41.90
2022-07-25T11:44:36.108Z,40.30
2022-07-25T11:48:19.930Z,40.00
2022-07-25T11:52:01.925Z,41.00
2022-07-25T11:55:47.355Z,41.30
2022-07-25T11:59:30.673Z,41.20
2022-07-25T12:03:19.564Z,41.60
2022-07-25T12:07:07.688Z,42.00
2022-07-25T12:10:55.849Z,42.50
2022-07-25T12:14:45.076Z,43.20
2022-07-25T12:18:28.930Z,43.00
2022-07-25T12:22:13.039Z,43.60
2022-07-25T12:25:55.242Z,43.70
2022-07-25T12:29:37.470Z,43.90
2022-07-25T12:33:20.678Z,43.60
2022-07-25T12:37:02.710Z,43.80
2022-07-25T12:40:46.181Z,44.30
2022-07-25T12:44:28.229Z,44.80
2022-07-25T12:48:10.801Z,45.20
2022-07-25T12:51:57.942Z,45.40
2022-07-25T12:55:44.801Z,45.30
2022-07-25T12:59:27.408Z,45.20
2022-07-25T13:03:10.020Z,43.70
2022-07-25T13:06:54.862Z,42.00
2022-07-25T13:10:36.969Z,42.80
2022-07-25T13:14:19.358Z,43.50
2022-07-25T13:18:02.878Z,44.20
2022-07-25T13:21:45.068Z,44.40
2022-07-25T13:25:33.551Z,44.40
2022-07-25T13:29:15.612Z,44.70
2022-07-25T13:33:01.840Z,45.20
2022-07-25T13:36:45.220Z,45.10
2022-07-25T13:40:31.504Z,44.70
2022-07-25T13:44:15.599Z,44.30
2022-07-25T13:48:27.241Z,44.30
2022-07-25T13:52:03.972Z,44.50
2022-07-25T13:55:52.069Z,44.80
2022-07-25T13:59:35.784Z,45.00
2022-07-25T14:03:18.138Z,45.10
2022-07-25T14:07:01.541Z,45.10
2022-07-25T14:10:44.005Z,45.30
2022-07-25T14:14:26.540Z,45.50
2022-07-25T14:18:10.001Z,45.90
2022-07-25T14:21:52.018Z,46.10
2022-07-25T14:25:34.598Z,46.50
2022-07-25T14:29:20.932Z,46.80
2022-07-25T14:33:03.371Z,47.20
2022-07-25T14:36:47.736Z,47.60
2022-07-25T14:40:29.998Z,48.00
2022-07-25T14:48:25.869Z,48.70
2022-07-25T14:52:14.376Z,48.50
2022-07-25T14:55:56.947Z,48.50
2022-07-25T14:59:39.478Z,48.50
2022-07-25T15:03:21.572Z,48.10
2022-07-25T15:07:04.347Z,47.80
2022-07-25T15:10:47.259Z,47.30
2022-07-25T15:14:37.887Z,47.10
2022-07-25T15:18:20.375Z,47.00
2022-07-25T15:22:02.886Z,46.80
2022-07-25T15:26:01.194Z,46.90
2022-07-25T15:29:45.618Z,46.90
2022-07-25T15:33:27.626Z,46.60
2022-07-25T15:37:10.372Z,46.10
2022-07-25T15:40:52.815Z,46.20
2022-07-25T15:44:34.859Z,46.10
2022-07-25T15:48:17.732Z,46.10
2022-07-25T15:52:00.463Z,46.20
2022-07-25T15:55:43.392Z,46.40
2022-07-25T15:59:25.493Z,46.40
2022-07-25T16:03:07.859Z,46.80
2022-07-25T16:06:50.366Z,47.00
2022-07-25T16:10:34.349Z,47.20
2022-07-25T16:14:17.679Z,47.40
2022-07-25T16:18:02.736Z,47.60
2022-07-25T16:21:45.174Z,47.90
2022-07-25T16:25:29.435Z,48.10
2022-07-25T16:29:12.116Z,48.20
2022-07-25T16:32:55.042Z,48.40
2022-07-25T16:36:37.378Z,48.80
2022-07-25T16:40:21.385Z,49.20
2022-07-25T16:48:01.278Z,49.80
2022-07-25T16:51:44.462Z,50.00
2022-07-25T16:55:27.144Z,50.10
2022-07-25T16:59:10.428Z,50.20
2022-07-25T17:02:52.909Z,50.60
2022-07-25T17:06:36.623Z,50.80
2022-07-25T17:10:18.752Z,50.80
2022-07-25T17:14:02.066Z,50.70
2022-07-25T17:17:44.551Z,50.70
2022-07-25T17:21:26.699Z,50.90
2022-07-25T17:25:09.217Z,51.10
2022-07-25T17:28:51.604Z,51.20
2022-07-25T17:32:36.128Z,51.40
2022-07-25T17:36:18.897Z,51.80
2022-07-25T17:40:01.153Z,52.00
2022-07-25T17:43:44.929Z,52.20
2022-07-25T17:47:29.474Z,52.30
2022-07-25T17:51:12.426Z,51.90
2022-07-25T17:54:55.833Z,51.50
2022-07-25T17:58:38.317Z,51.20
2022-07-25T18:02:28.098Z,51.00
2022-07-25T18:06:15.222Z,51.00
2022-07-25T18:09:58.869Z,50.60
2022-07-25T18:13:41.828Z,50.70
2022-07-25T18:17:24.134Z,50.60
2022-07-25T18:21:12.922Z,50.60
2022-07-25T18:24:57.750Z,50.50
2022-07-25T18:28:41.705Z,50.60
2022-07-25T18:32:23.949Z,50.70
2022-07-25T18:36:07.821Z,50.80
2022-07-25T18:39:50.222Z,50.80
2022-07-25T18:43:32.714Z,50.60
2022-07-25T18:47:16.758Z,50.40
2022-07-25T18:51:00.566Z,50.30
2022-07-25T18:54:43.733Z,50.30
2022-07-25T18:58:26.040Z,50.10
2022-07-25T19:02:08.261Z,49.90
2022-07-25T19:05:50.810Z,49.80
2022-07-25T19:09:33.002Z,49.50
2022-07-25T19:13:32.688Z,49.50
2022-07-25T19:17:18.412Z,49.50
2022-07-25T19:21:00.525Z,49.60
2022-07-25T19:24:43.620Z,49.70
2022-07-25T19:28:25.832Z,49.80
2022-07-25T19:32:07.960Z,49.90
2022-07-25T19:35:50.656Z,50.00
2022-07-25T19:39:35.665Z,50.00
2022-07-25T19:43:17.886Z,50.00
2022-07-25T19:47:00.067Z,50.10
2022-07-25T19:50:46.604Z,50.10
2022-07-25T19:54:29.263Z,50.20
2022-07-25T19:58:11.756Z,50.20
2022-07-25T20:01:55.912Z,50.10
2022-07-25T20:05:38.236Z,50.20
2022-07-25T20:09:20.766Z,50.20
2022-07-25T20:13:03.493Z,50.20
2022-07-25T20:16:46.064Z,50.20
2022-07-25T20:20:31.139Z,50.10
2022-07-25T20:24:19.397Z,50.10
2022-07-25T20:28:03.645Z,50.10
2022-07-25T20:31:45.957Z,50.20
2022-07-25T20:35:33.746Z,50.30
2022-07-25T20:39:16.433Z,50.30
2022-07-25T20:42:59.720Z,50.30
2022-07-25T20:46:43.152Z,50.40
2022-07-25T20:50:29.796Z,50.60
2022-07-25T20:54:14.699Z,50.80
2022-07-25T20:57:59.444Z,50.90
2022-07-25T21:01:43.444Z,51.00
2022-07-25T21:05:26.771Z,51.30
2022-07-25T21:09:12.246Z,51.50
2022-07-25T21:12:57.036Z,51.70
2022-07-25T21:16:39.663Z,51.80
2022-07-25T21:20:21.951Z,52.00
2022-07-25T21:24:07.940Z,52.30
2022-07-25T21:27:50.367Z,52.70
2022-07-25T21:31:33.990Z,52.80
2022-07-25T21:35:16.301Z,53.00
2022-07-25T21:38:58.476Z,53.20
2022-07-25T21:42:41.592Z,53.50
2022-07-25T21:46:24.423Z,53.60
2022-07-25T21:50:26.468Z,53.90
2022-07-25T21:54:09.685Z,54.10
2022-07-25T21:57:53.237Z,54.30
2022-07-25T22:01:36.039Z,54.50
2022-07-25T22:05:20.977Z,54.70
2022-07-25T22:09:05.189Z,54.90
2022-07-25T22:12:48.328Z,55.10
2022-07-25T22:16:33.025Z,55.20
2022-07-25T22:20:15.730Z,55.30
2022-07-25T22:24:00.262Z,55.50
2022-07-25T22:27:42.675Z,55.60
2022-07-25T22:31:26.857Z,55.70
2022-07-25T22:35:10.532Z,55.90
2022-07-25T22:38:53.301Z,56.10
2022-07-25T22:42:35.548Z,56.30
2022-07-25T22:46:18.486Z,56.50
2022-07-25T22:50:00.847Z,56.60
2022-07-25T22:53:43.321Z,56.70
2022-07-25T22:57:26.198Z,56.90
2022-07-25T23:01:10.000Z,57.00
2022-07-25T23:04:54.720Z,57.30
2022-07-25T23:08:37.257Z,57.40
2022-07-25T23:12:20.676Z,57.50
2022-07-25T23:16:04.410Z,57.70
2022-07-25T23:19:48.750Z,57.90
2022-07-25T23:23:36.209Z,58.10
2022-07-25T23:27:23.018Z,58.30
2022-07-25T23:31:06.589Z,58.40
2022-07-25T23:34:49.674Z,58.50
2022-07-25T23:38:33.480Z,58.70
2022-07-25T23:42:15.775Z,58.80
2022-07-25T23:45:59.163Z,58.90
2022-07-25T23:49:48.094Z,59.10
2022-07-25T23:53:32.060Z,59.20
2022-07-25T23:57:15.614Z,59.20
